createdAt,value
2019-02-23T00:00:42.642Z,9.00
2019-02-23T00:03:11.252Z,9.00
2019-02-23T00:05:40.163Z,9.00
2019-02-23T00:08:08.850Z,9.00
2019-02-23T00:10:37.447Z,8.90
2019-02-23T00:13:06.047Z,8.90
2019-02-23T00:15:34.639Z,8.90
2019-02-23T00:18:03.267Z,8.90
2019-02-23T00:20:31.865Z,8.90
2019-02-23T00:23:00.484Z,8.90
2019-02-23T00:25:29.076Z,8.90
2019-02-23T00:27:57.678Z,8.80
2019-02-23T00:30:26.261Z,8.80
2019-02-23T00:32:54.932Z,8.80
2019-02-23T00:35:23.552Z,8.70
2019-02-23T00:37:57.446Z,8.70
2019-02-23T00:40:50.585Z,8.70
2019-02-23T00:46:54.043Z,8.60
2019-02-23T00:52:31.493Z,8.50
2019-02-23T00:55:00.256Z,8.50
2019-02-23T00:57:29.167Z,8.50
2019-02-23T00:59:57.778Z,8.40
2019-02-23T01:02:26.358Z,8.40
2019-02-23T01:04:54.961Z,8.40
2019-02-23T01:07:42.886Z,8.40
2019-02-23T01:10:11.477Z,8.40
2019-02-23T01:12:40.073Z,8.40
2019-02-23T01:15:09.917Z,8.40
2019-02-23T01:17:57.821Z,8.40
2019-02-23T01:20:26.433Z,8.40
2019-02-23T01:22:54.999Z,8.40
2019-02-23T01:25:23.568Z,8.30
2019-02-23T01:27:52.161Z,8.30
2019-02-23T01:30:20.723Z,8.30
2019-02-23T01:32:49.300Z,8.30
2019-02-23T01:35:17.899Z,8.30
2019-02-23T01:37:46.468Z,8.30
2019-02-23T01:40:15.044Z,8.20
2019-02-23T01:42:43.645Z,8.20
2019-02-23T01:45:12.228Z,8.20
2019-02-23T01:47:40.836Z,8.20
2019-02-23T01:50:09.601Z,8.20
2019-02-23T01:52:38.207Z,8.10
2019-02-23T01:55:08.315Z,8.10
2019-02-23T01:57:36.935Z,8.10
2019-02-23T02:00:07.879Z,8.10
2019-02-23T02:02:36.503Z,8.10
2019-02-23T02:05:05.203Z,8.10
2019-02-23T02:07:33.809Z,8.10
2019-02-23T02:10:02.885Z,8.10
2019-02-23T02:12:31.460Z,8.10
2019-02-23T02:15:00.028Z,8.00
2019-02-23T02:17:28.605Z,8.00
2019-02-23T02:19:57.174Z,8.00
2019-02-23T02:22:25.756Z,8.00
2019-02-23T02:24:54.353Z,7.90
2019-02-23T02:27:22.964Z,7.90
2019-02-23T02:29:51.600Z,7.90
2019-02-23T02:32:20.216Z,7.90
2019-02-23T02:34:48.869Z,7.90
2019-02-23T02:37:17.497Z,7.80
2019-02-23T02:39:46.084Z,7.80
2019-02-23T02:42:17.280Z,7.80
2019-02-23T02:44:45.901Z,7.80
2019-02-23T02:47:14.515Z,7.80
2019-02-23T02:49:43.093Z,7.80
2019-02-23T02:52:11.709Z,7.70
2019-02-23T02:54:40.303Z,7.70
2019-02-23T02:57:09.077Z,7.70
2019-02-23T02:59:37.695Z,7.70
2019-02-23T03:02:06.373Z,7.70
2019-02-23T03:04:34.947Z,7.70
2019-02-23T03:07:04.646Z,7.60
2019-02-23T03:09:33.248Z,7.60
2019-02-23T03:12:02.214Z,7.60
2019-02-23T03:14:30.803Z,7.60
2019-02-23T03:16:59.409Z,7.60
2019-02-23T03:19:28.014Z,7.60
2019-02-23T03:21:56.589Z,7.60
2019-02-23T03:24:25.180Z,7.60
2019-02-23T03:26:53.843Z,7.60
2019-02-23T03:29:22.419Z,7.60
2019-02-23T03:31:51.033Z,7.50
2019-02-23T03:34:19.651Z,7.50
2019-02-23T03:36:48.232Z,7.50
2019-02-23T03:39:18.104Z,7.50
2019-02-23T03:41:46.699Z,7.40
2019-02-23T03:44:16.609Z,7.40
2019-02-23T03:46:45.171Z,7.40
2019-02-23T03:49:13.740Z,7.40
2019-02-23T03:51:42.356Z,7.40
2019-02-23T03:54:10.935Z,7.40
2019-02-23T03:56:39.540Z,7.40
2019-02-23T03:59:08.112Z,7.40
2019-02-23T04:01:36.680Z,7.30
2019-02-23T04:04:05.671Z,7.30
2019-02-23T04:06:34.269Z,7.30
2019-02-23T04:09:03.684Z,7.30
2019-02-23T04:11:32.259Z,7.30
2019-02-23T04:14:02.202Z,7.30
2019-02-23T04:16:30.801Z,7.20
2019-02-23T04:18:59.383Z,7.20
2019-02-23T04:21:27.969Z,7.20
2019-02-23T04:23:56.562Z,7.20
2019-02-23T04:26:25.132Z,7.20
2019-02-23T04:28:53.715Z,7.20
2019-02-23T04:31:22.306Z,7.10
2019-02-23T04:33:50.880Z,7.10
2019-02-23T04:36:19.490Z,7.20
2019-02-23T04:38:48.092Z,7.10
2019-02-23T04:41:16.777Z,7.10
2019-02-23T04:43:45.361Z,7.10
2019-02-23T04:46:13.972Z,7.10
2019-02-23T04:48:42.549Z,7.10
2019-02-23T04:51:14.350Z,7.10
2019-02-23T04:53:41.484Z,7.00
2019-02-23T04:56:10.048Z,7.00
2019-02-23T04:58:38.627Z,7.00
2019-02-23T05:01:07.192Z,7.00
2019-02-23T05:03:35.854Z,6.90
2019-02-23T05:06:04.445Z,6.90
2019-02-23T05:08:33.041Z,6.80
2019-02-23T05:11:01.642Z,6.80
2019-02-23T05:13:30.315Z,6.70
2019-02-23T05:15:58.907Z,6.70
2019-02-23T05:18:27.505Z,6.70
2019-02-23T05:20:56.195Z,6.60
2019-02-23T05:23:24.861Z,6.60
2019-02-23T05:25:53.443Z,6.50
2019-02-23T05:28:22.024Z,6.50
2019-02-23T05:30:50.621Z,6.40
2019-02-23T05:33:19.192Z,6.40
2019-02-23T05:35:47.836Z,6.40
2019-02-23T05:38:18.635Z,6.40
2019-02-23T05:40:47.260Z,6.40
2019-02-23T05:43:18.839Z,6.30
2019-02-23T05:45:47.462Z,6.30
2019-02-23T05:48:19.944Z,6.30
2019-02-23T05:50:48.607Z,6.30
2019-02-23T05:53:17.669Z,6.30
2019-02-23T05:55:46.261Z,6.20
2019-02-23T05:58:15.114Z,6.20
2019-02-23T06:00:43.717Z,6.20
2019-02-23T06:03:12.309Z,6.20
2019-02-23T06:05:40.923Z,6.10
2019-02-23T06:08:09.496Z,6.10
2019-02-23T06:10:38.077Z,6.10
2019-02-23T06:13:06.652Z,6.10
2019-02-23T06:15:35.228Z,6.10
2019-02-23T06:18:03.905Z,6.10
2019-02-23T06:20:32.488Z,6.10
2019-02-23T06:23:02.237Z,6.10
2019-02-23T06:25:30.845Z,6.10
2019-02-23T06:27:59.469Z,6.00
2019-02-23T06:30:28.056Z,6.00
2019-02-23T06:32:56.640Z,6.00
2019-02-23T06:35:25.212Z,6.00
2019-02-23T06:37:53.809Z,5.90
2019-02-23T06:40:22.716Z,6.00
2019-02-23T06:42:51.332Z,5.90
2019-02-23T06:45:19.926Z,6.00
2019-02-23T06:47:48.508Z,6.00
2019-02-23T06:50:17.200Z,6.00
2019-02-23T06:52:45.779Z,6.00
2019-02-23T06:55:14.445Z,6.00
2019-02-23T06:57:43.089Z,5.90
2019-02-23T07:00:13.736Z,6.00
2019-02-23T07:02:42.362Z,5.90
2019-02-23T07:05:10.950Z,5.90
2019-02-23T07:07:39.564Z,5.90
2019-02-23T07:10:09.625Z,5.90
2019-02-23T07:12:38.224Z,5.90
2019-02-23T07:15:07.412Z,6.00
2019-02-23T07:17:36.018Z,6.00
2019-02-23T07:20:44.311Z,6.00
2019-02-23T07:23:08.800Z,6.00
2019-02-23T07:25:37.401Z,6.00
2019-02-23T07:28:05.995Z,6.00
2019-02-23T07:30:34.580Z,6.10
2019-02-23T07:33:03.281Z,6.10
2019-02-23T07:35:31.928Z,6.20
2019-02-23T07:38:00.791Z,6.30
2019-02-23T07:40:29.529Z,6.30
2019-02-23T07:42:58.460Z,6.30
2019-02-23T07:45:27.067Z,6.40
2019-02-23T07:47:55.661Z,6.40
2019-02-23T07:50:24.244Z,6.50
2019-02-23T07:52:52.859Z,6.60
2019-02-23T07:55:21.497Z,6.70
2019-02-23T07:57:50.094Z,6.80
2019-02-23T08:00:38.013Z,7.00
2019-02-23T08:03:06.649Z,7.10
2019-02-23T08:05:35.291Z,7.10
2019-02-23T08:08:03.980Z,7.30
2019-02-23T08:10:32.595Z,7.30
2019-02-23T08:13:03.496Z,7.40
2019-02-23T08:15:32.081Z,7.60
2019-02-23T08:18:00.719Z,7.70
2019-02-23T08:20:29.324Z,7.90
2019-02-23T08:22:57.921Z,8.00
2019-02-23T08:25:26.528Z,8.10
2019-02-23T08:27:55.105Z,8.20
2019-02-23T08:30:23.970Z,8.40
2019-02-23T08:32:52.599Z,8.50
2019-02-23T08:35:21.159Z,8.60
2019-02-23T08:37:49.770Z,8.80
2019-02-23T08:40:18.505Z,8.80
2019-02-23T08:42:47.151Z,8.90
2019-02-23T08:45:15.932Z,9.00
2019-02-23T08:47:44.921Z,8.80
2019-02-23T08:50:13.907Z,8.90
2019-02-23T08:52:49.155Z,8.90
2019-02-23T08:55:12.946Z,9.00
2019-02-23T08:57:41.541Z,8.90
2019-02-23T09:00:12.637Z,9.00
2019-02-23T09:02:41.290Z,9.00
2019-02-23T09:05:10.521Z,9.00
2019-02-23T09:07:39.457Z,9.10
2019-02-23T09:10:09.355Z,9.10
2019-02-23T09:12:37.930Z,9.10
2019-02-23T09:15:06.556Z,9.20
2019-02-23T09:17:35.176Z,9.30
2019-02-23T09:20:06.160Z,9.30
2019-02-23T09:22:35.194Z,9.30
2019-02-23T09:25:04.285Z,9.40
2019-02-23T09:27:33.317Z,9.40
2019-02-23T09:30:02.987Z,9.50
2019-02-23T09:32:31.618Z,9.40
2019-02-23T09:35:00.340Z,9.50
2019-02-23T09:37:48.278Z,9.50
2019-02-23T09:40:19.113Z,9.50
2019-02-23T09:42:48.158Z,9.60
2019-02-23T09:45:17.926Z,9.60
2019-02-23T09:47:46.873Z,9.60
2019-02-23T09:50:15.495Z,9.70
2019-02-23T09:52:44.122Z,9.80
2019-02-23T09:55:12.720Z,9.80
2019-02-23T09:57:41.341Z,9.90
2019-02-23T10:00:10.074Z,10.00
2019-02-23T10:02:58.048Z,10.00
2019-02-23T10:05:26.653Z,10.00
2019-02-23T10:08:16.668Z,10.00
2019-02-23T10:10:46.543Z,10.10
2019-02-23T10:13:15.220Z,10.20
2019-02-23T10:15:44.113Z,10.20
2019-02-23T10:18:12.701Z,10.20
2019-02-23T10:20:41.390Z,10.20
2019-02-23T10:23:10.152Z,10.30
2019-02-23T10:25:38.825Z,10.30
2019-02-23T10:28:07.434Z,10.30
2019-02-23T10:30:43.254Z,10.40
2019-02-23T10:33:11.852Z,10.50
2019-02-23T10:35:40.473Z,10.60
2019-02-23T10:38:09.080Z,10.60
2019-02-23T10:40:37.716Z,10.60
2019-02-23T10:43:06.272Z,10.70
2019-02-23T10:45:35.184Z,10.80
2019-02-23T10:48:05.128Z,10.90
2019-02-23T10:50:33.749Z,11.00
2019-02-23T10:53:02.431Z,11.10
2019-02-23T10:55:31.051Z,11.20
2019-02-23T10:57:59.636Z,11.30
2019-02-23T11:00:28.735Z,11.40
2019-02-23T11:02:57.360Z,11.40
2019-02-23T11:05:25.991Z,11.50
2019-02-23T11:07:54.661Z,11.70
2019-02-23T11:10:23.274Z,11.80
2019-02-23T11:12:51.865Z,11.90
2019-02-23T11:15:22.151Z,11.90
2019-02-23T11:17:50.791Z,11.90
2019-02-23T11:20:19.843Z,12.00
2019-02-23T11:22:48.427Z,12.10
2019-02-23T11:25:17.514Z,12.20
2019-02-23T11:27:46.149Z,12.20
2019-02-23T11:30:14.952Z,12.20
2019-02-23T11:32:43.581Z,12.20
2019-02-23T11:35:12.175Z,12.20
2019-02-23T11:37:40.781Z,12.30
2019-02-23T11:40:10.178Z,12.30
2019-02-23T11:42:38.833Z,12.30
2019-02-23T11:45:07.727Z,12.40
2019-02-23T11:47:36.304Z,12.60
2019-02-23T11:50:05.191Z,12.60
2019-02-23T11:52:33.755Z,12.60
2019-02-23T11:55:02.414Z,12.60
2019-02-23T11:57:31.047Z,12.70
2019-02-23T11:59:59.646Z,12.80
2019-02-23T12:02:28.225Z,12.80
2019-02-23T12:04:56.834Z,12.70
2019-02-23T12:07:25.444Z,12.80
2019-02-23T12:09:54.036Z,12.90
2019-02-23T12:12:22.625Z,12.80
2019-02-23T12:14:51.223Z,12.90
2019-02-23T12:17:20.119Z,13.00
2019-02-23T12:19:48.723Z,13.10
2019-02-23T12:22:17.344Z,13.10
2019-02-23T12:24:45.926Z,13.30
2019-02-23T12:27:16.866Z,13.30
2019-02-23T12:29:45.444Z,13.30
2019-02-23T12:32:15.270Z,13.40
2019-02-23T12:34:44.141Z,13.40
2019-02-23T12:37:13.054Z,13.30
2019-02-23T12:39:41.732Z,13.40
2019-02-23T12:42:10.297Z,13.40
2019-02-23T12:44:38.896Z,13.40
2019-02-23T12:47:07.496Z,13.40
2019-02-23T12:49:36.937Z,13.40
2019-02-23T12:52:05.542Z,13.40
2019-02-23T12:54:34.157Z,13.60
2019-02-23T12:57:03.096Z,13.60
2019-02-23T12:59:31.712Z,13.50
2019-02-23T13:02:00.331Z,13.60
2019-02-23T13:04:28.941Z,13.60
2019-02-23T13:06:57.517Z,13.60
2019-02-23T13:09:28.756Z,13.70
2019-02-23T13:12:10.997Z,13.70
2019-02-23T13:14:52.998Z,13.70
2019-02-23T13:18:01.032Z,13.60
2019-02-23T13:21:10.036Z,13.60
2019-02-23T13:24:01.452Z,13.70
2019-02-23T13:27:10.017Z,13.70
2019-02-23T13:30:03.718Z,13.80
2019-02-23T13:33:08.659Z,13.90
2019-02-23T13:36:10.197Z,14.00
2019-02-23T13:39:19.353Z,14.10
2019-02-23T13:42:13.743Z,14.00
2019-02-23T13:45:20.262Z,14.00
2019-02-23T13:48:02.436Z,14.00
2019-02-23T13:51:09.296Z,13.90
2019-02-23T13:54:13.548Z,13.90
2019-02-23T13:57:05.682Z,13.90
2019-02-23T14:00:05.574Z,14.00
2019-02-23T14:03:20.929Z,13.90
2019-02-23T14:06:34.528Z,14.00
2019-02-23T14:09:46.051Z,14.00
2019-02-23T14:12:47.723Z,13.90
2019-02-23T14:15:51.530Z,14.00
2019-02-23T14:18:54.967Z,14.00
2019-02-23T14:22:15.925Z,14.00
2019-02-23T14:25:23.259Z,14.00
2019-02-23T14:28:45.447Z,14.10
2019-02-23T14:31:55.821Z,14.00
2019-02-23T14:35:04.909Z,14.00
2019-02-23T14:38:10.079Z,14.00
2019-02-23T14:41:03.956Z,14.00
2019-02-23T14:44:12.807Z,14.00
2019-02-23T14:47:18.760Z,14.00
2019-02-23T14:50:12.055Z,13.90
2019-02-23T14:53:26.939Z,13.90
2019-02-23T14:56:32.872Z,13.90
2019-02-23T14:59:44.706Z,14.00
2019-02-23T15:03:04.349Z,13.90
2019-02-23T15:05:52.155Z,13.90
2019-02-23T15:08:45.752Z,13.90
2019-02-23T15:11:44.806Z,13.90
2019-02-23T15:14:53.295Z,13.90
2019-02-23T15:18:02.147Z,13.80
2019-02-23T15:20:55.488Z,13.70
2019-02-23T15:23:59.073Z,13.70
2019-02-23T15:27:16.638Z,13.60
2019-02-23T15:30:32.029Z,13.60
2019-02-23T15:33:32.161Z,13.50
2019-02-23T15:37:00.630Z,13.40
2019-02-23T15:40:07.571Z,13.40
2019-02-23T15:43:02.007Z,13.40
2019-02-23T15:46:22.437Z,13.30
2019-02-23T15:49:36.036Z,13.30
2019-02-23T15:52:08.402Z,13.30
2019-02-23T15:54:37.040Z,13.10
2019-02-23T15:57:05.634Z,13.10
2019-02-23T15:59:34.231Z,13.00
2019-02-23T16:02:04.123Z,12.90
2019-02-23T16:04:32.723Z,12.80
2019-02-23T16:07:20.679Z,12.70
2019-02-23T16:09:49.300Z,12.70
2019-02-23T16:12:18.298Z,12.70
2019-02-23T16:14:46.886Z,12.60
2019-02-23T16:17:17.904Z,12.60
2019-02-23T16:19:46.488Z,12.50
2019-02-23T16:22:18.331Z,12.50
2019-02-23T16:24:46.800Z,12.40
2019-02-23T16:27:17.356Z,12.40
2019-02-23T16:29:46.023Z,12.40
2019-02-23T16:32:14.824Z,12.30
2019-02-23T16:34:43.499Z,12.20
2019-02-23T16:37:13.386Z,12.10
2019-02-23T16:39:42.361Z,12.00
2019-02-23T16:42:11.095Z,12.00
2019-02-23T16:44:39.704Z,11.90
2019-02-23T16:47:08.437Z,11.90
2019-02-23T16:49:37.055Z,11.80
2019-02-23T16:52:05.622Z,11.80
2019-02-23T16:54:34.224Z,11.80
2019-02-23T16:57:05.382Z,11.70
2019-02-23T16:59:34.913Z,11.60
2019-02-23T17:02:03.698Z,11.50
2019-02-23T17:04:32.301Z,11.50
2019-02-23T17:07:01.278Z,11.50
2019-02-23T17:09:29.910Z,11.50
2019-02-23T17:12:01.693Z,11.40
2019-02-23T17:14:28.801Z,11.30
2019-02-23T17:16:57.401Z,11.30
2019-02-23T17:19:25.981Z,11.20
2019-02-23T17:21:54.562Z,11.20
2019-02-23T17:24:23.621Z,11.10
2019-02-23T17:26:52.409Z,11.10
2019-02-23T17:29:21.020Z,11.00
2019-02-23T17:31:49.615Z,11.00
2019-02-23T17:34:18.264Z,10.90
2019-02-23T17:36:46.856Z,10.90
2019-02-23T17:39:17.769Z,10.80
2019-02-23T17:41:46.644Z,10.80
2019-02-23T17:44:16.884Z,10.70
2019-02-23T17:46:48.459Z,10.70
2019-02-23T17:49:19.369Z,10.70
2019-02-23T17:51:47.948Z,10.70
2019-02-23T17:54:16.613Z,10.60
2019-02-23T17:56:45.194Z,10.60
2019-02-23T17:59:33.108Z,10.60
2019-02-23T18:02:01.806Z,10.60
2019-02-23T18:04:30.407Z,10.60
2019-02-23T18:06:58.987Z,10.50
2019-02-23T18:09:27.675Z,10.50
2019-02-23T18:12:15.917Z,10.50
2019-02-23T18:14:45.169Z,10.50
2019-02-23T18:17:13.788Z,10.40
2019-02-23T18:19:42.499Z,10.40
2019-02-23T18:22:11.095Z,10.40
2019-02-23T18:24:39.699Z,10.30
2019-02-23T18:27:08.570Z,10.30
2019-02-23T18:29:37.269Z,10.30
2019-02-23T18:32:25.566Z,10.20
2019-02-23T18:35:00.457Z,10.20
2019-02-23T18:37:29.404Z,10.20
2019-02-23T18:39:57.987Z,10.10
2019-02-23T18:42:26.596Z,10.10
2019-02-23T18:44:55.151Z,10.10
2019-02-23T18:47:23.779Z,10.00
2019-02-23T18:49:52.388Z,10.00
2019-02-23T18:52:20.971Z,9.90
2019-02-23T18:54:49.572Z,9.90
2019-02-23T18:57:18.151Z,9.90
2019-02-23T18:59:46.741Z,9.90
2019-02-23T19:05:06.226Z,9.80
2019-02-23T19:07:34.811Z,9.80
2019-02-23T19:10:22.733Z,9.80
2019-02-23T19:12:51.689Z,9.70
2019-02-23T19:15:20.271Z,9.70
2019-02-23T19:17:48.881Z,9.70
2019-02-23T19:20:17.458Z,9.60
2019-02-23T19:23:05.347Z,9.60
2019-02-23T19:25:33.943Z,9.60
2019-02-23T19:28:02.579Z,9.60
2019-02-23T19:30:31.251Z,9.50
2019-02-23T19:32:59.864Z,9.50
2019-02-23T19:35:28.468Z,9.50
2019-02-23T19:37:57.027Z,9.40
2019-02-23T19:40:25.620Z,9.40
2019-02-23T19:42:54.216Z,9.40
2019-02-23T19:45:23.103Z,9.40
2019-02-23T19:47:51.687Z,9.30
2019-02-23T19:50:23.813Z,9.30
2019-02-23T19:52:52.757Z,9.30
2019-02-23T19:55:21.337Z,9.30
2019-02-23T19:57:49.959Z,9.30
2019-02-23T20:00:18.857Z,9.30
2019-02-23T20:02:47.941Z,9.30
2019-02-23T20:05:16.928Z,9.20
2019-02-23T20:07:45.535Z,9.20
2019-02-23T20:10:16.419Z,9.20
2019-02-23T20:12:44.477Z,9.20
2019-02-23T20:15:32.432Z,9.10
2019-02-23T20:18:03.834Z,9.10
2019-02-23T20:20:32.421Z,9.00
2019-02-23T20:23:01.037Z,9.00
2019-02-23T20:25:29.601Z,8.90
2019-02-23T20:27:58.192Z,8.90
2019-02-23T20:30:27.071Z,8.90
2019-02-23T20:32:55.667Z,8.90
2019-02-23T20:35:24.338Z,8.90
2019-02-23T20:37:53.200Z,8.80
2019-02-23T20:40:21.798Z,8.80
2019-02-23T20:42:50.417Z,8.70
2019-02-23T20:45:18.993Z,8.70
2019-02-23T20:47:47.664Z,8.70
2019-02-23T20:50:18.728Z,8.70
2019-02-23T20:52:47.299Z,8.70
2019-02-23T20:55:18.770Z,8.60
2019-02-23T20:57:48.977Z,8.60
2019-02-23T21:00:17.560Z,8.60
2019-02-23T21:02:46.164Z,8.60
2019-02-23T21:05:14.920Z,8.50
2019-02-23T21:07:45.078Z,8.50
2019-02-23T21:10:13.666Z,8.30
2019-02-23T21:12:42.370Z,8.40
2019-02-23T21:15:10.969Z,8.30
2019-02-23T21:17:39.880Z,8.30
2019-02-23T21:20:08.490Z,8.20
2019-02-23T21:22:37.063Z,8.20
2019-02-23T21:25:05.686Z,8.00
2019-02-23T21:27:34.268Z,8.00
2019-02-23T21:30:05.311Z,8.00
2019-02-23T21:32:33.887Z,8.00
2019-02-23T21:35:05.385Z,8.00
2019-02-23T21:37:33.983Z,7.90
2019-02-23T21:40:02.571Z,7.80
2019-02-23T21:42:31.152Z,7.80
2019-02-23T21:44:59.752Z,7.70
2019-02-23T21:47:28.332Z,7.70
2019-02-23T21:49:56.912Z,7.70
2019-02-23T21:52:25.511Z,7.70
2019-02-23T21:54:54.110Z,7.70
2019-02-23T21:57:22.774Z,7.70
2019-02-23T21:59:51.356Z,7.60
2019-02-23T22:02:19.932Z,7.60
2019-02-23T22:04:48.509Z,7.60
2019-02-23T22:07:17.318Z,7.60
2019-02-23T22:09:45.893Z,7.50
2019-02-23T22:12:16.113Z,7.50
2019-02-23T22:14:44.778Z,7.50
2019-02-23T22:17:13.390Z,7.50
2019-02-23T22:19:42.113Z,7.40
2019-02-23T22:22:10.872Z,7.40
2019-02-23T22:24:39.527Z,7.30
2019-02-23T22:27:08.124Z,7.30
2019-02-23T22:29:36.712Z,7.30
2019-02-23T22:32:05.280Z,7.30
2019-02-23T22:34:33.869Z,7.20
2019-02-23T22:37:02.567Z,7.30
2019-02-23T22:39:31.204Z,7.30
2019-02-23T22:41:59.896Z,7.20
2019-02-23T22:44:28.795Z,7.20
2019-02-23T22:46:57.380Z,7.20
2019-02-23T22:49:25.981Z,7.10
2019-02-23T22:51:54.557Z,7.10
2019-02-23T22:54:23.132Z,7.00
2019-02-23T22:56:51.705Z,7.00
2019-02-23T22:59:20.616Z,7.00
2019-02-23T23:01:49.290Z,7.00
2019-02-23T23:04:17.868Z,6.90
2019-02-23T23:06:46.477Z,6.90
2019-02-23T23:09:19.620Z,6.90
2019-02-23T23:11:48.228Z,6.90
2019-02-23T23:14:18.441Z,6.80
2019-02-23T23:16:47.107Z,6.80
2019-02-23T23:19:18.553Z,6.80
2019-02-23T23:21:47.167Z,6.80
2019-02-23T23:24:18.767Z,6.80
2019-02-23T23:26:47.353Z,6.70
2019-02-23T23:29:16.373Z,6.70
2019-02-23T23:31:44.981Z,6.60
2019-02-23T23:34:13.568Z,6.60
2019-02-23T23:36:42.159Z,6.70
2019-02-23T23:39:10.741Z,6.60
2019-02-23T23:41:39.342Z,6.70
2019-02-23T23:44:07.920Z,6.70
2019-02-23T23:46:36.556Z,6.70
2019-02-23T23:49:05.181Z,6.70
2019-02-23T23:51:33.763Z,6.70
2019-02-23T23:54:02.434Z,6.70
2019-02-23T23:56:31.025Z,6.80
2019-02-23T23:58:59.608Z,6.80
